sensor_id;sensor_type;location;lat;lon;timestamp;temperature;humidity
12907;DHT22;6521;50.498;8.474;2023-02-13T00:01:48;5.89;93.66
12907;DHT22;6521;50.498;8.474;2023-02-13T00:04:19;5.89;93.69
12907;DHT22;6521;50.498;8.474;2023-02-13T00:06:49;5.90;93.68
12907;DHT22;6521;50.498;8.474;2023-02-13T00:09:20;5.89;93.65
12907;DHT22;6521;50.498;8.474;2023-02-13T00:11:51;5.87;93.65
12907;DHT22;6521;50.498;8.474;2023-02-13T00:14:22;5.84;93.67
12907;DHT22;6521;50.498;8.474;2023-02-13T00:16:53;5.84;93.73
12907;DHT22;6521;50.498;8.474;2023-02-13T00:19:23;5.86;93.72
12907;DHT22;6521;50.498;8.474;2023-02-13T00:21:54;5.86;93.73
12907;DHT22;6521;50.498;8.474;2023-02-13T00:24:25;5.86;93.70
12907;DHT22;6521;50.498;8.474;2023-02-13T00:26:56;5.83;93.83
12907;DHT22;6521;50.498;8.474;2023-02-13T00:29:26;5.86;93.79
12907;DHT22;6521;50.498;8.474;2023-02-13T00:31:57;5.87;93.74
12907;DHT22;6521;50.498;8.474;2023-02-13T00:34:29;5.89;93.70
12907;DHT22;6521;50.498;8.474;2023-02-13T00:37:00;5.84;93.68
12907;DHT22;6521;50.498;8.474;2023-02-13T00:39:30;5.87;93.67
12907;DHT22;6521;50.498;8.474;2023-02-13T00:42:01;5.86;93.69
12907;DHT22;6521;50.498;8.474;2023-02-13T00:44:32;5.86;93.63
12907;DHT22;6521;50.498;8.474;2023-02-13T00:47:04;5.86;93.64
12907;DHT22;6521;50.498;8.474;2023-02-13T00:49:35;5.84;93.69
12907;DHT22;6521;50.498;8.474;2023-02-13T00:52:06;5.84;93.71
12907;DHT22;6521;50.498;8.474;2023-02-13T00:54:37;5.84;93.67
12907;DHT22;6521;50.498;8.474;2023-02-13T00:57:07;5.90;93.68
12907;DHT22;6521;50.498;8.474;2023-02-13T00:59:38;5.87;93.66
12907;DHT22;6521;50.498;8.474;2023-02-13T01:02:09;5.83;93.76
12907;DHT22;6521;50.498;8.474;2023-02-13T01:04:40;5.81;93.86
12907;DHT22;6521;50.498;8.474;2023-02-13T01:07:10;5.84;93.78
12907;DHT22;6521;50.498;8.474;2023-02-13T01:09:41;5.84;93.78
12907;DHT22;6521;50.498;8.474;2023-02-13T01:12:12;5.86;93.84
12907;DHT22;6521;50.498;8.474;2023-02-13T01:14:42;5.84;93.80
12907;DHT22;6521;50.498;8.474;2023-02-13T01:17:15;5.84;93.87
12907;DHT22;6521;50.498;8.474;2023-02-13T01:19:46;5.83;93.84
12907;DHT22;6521;50.498;8.474;2023-02-13T01:22:16;5.84;93.87
12907;DHT22;6521;50.498;8.474;2023-02-13T01:24:47;5.84;93.86
12907;DHT22;6521;50.498;8.474;2023-02-13T01:27:18;5.83;93.84
12907;DHT22;6521;50.498;8.474;2023-02-13T01:29:49;5.83;93.71
12907;DHT22;6521;50.498;8.474;2023-02-13T01:32:21;5.81;93.67
12907;DHT22;6521;50.498;8.474;2023-02-13T01:34:51;5.81;93.68
12907;DHT22;6521;50.498;8.474;2023-02-13T01:37:22;5.84;93.57
12907;DHT22;6521;50.498;8.474;2023-02-13T01:39:53;5.86;93.50
12907;DHT22;6521;50.498;8.474;2023-02-13T01:42:28;5.84;93.55
12907;DHT22;6521;50.498;8.474;2023-02-13T01:45:02;5.84;93.45
12907;DHT22;6521;50.498;8.474;2023-02-13T01:47:44;5.74;93.26
12907;DHT22;6521;50.498;8.474;2023-02-13T01:52:50;5.74;93.15
12907;DHT22;6521;50.498;8.474;2023-02-13T01:55:22;5.73;93.16
12907;DHT22;6521;50.498;8.474;2023-02-13T01:58:01;5.71;93.10
12907;DHT22;6521;50.498;8.474;2023-02-13T02:00:35;5.71;93.01
12907;DHT22;6521;50.498;8.474;2023-02-13T02:03:13;5.73;92.94
12907;DHT22;6521;50.498;8.474;2023-02-13T02:05:46;5.73;92.91
12907;DHT22;6521;50.498;8.474;2023-02-13T02:08:19;5.73;92.85
12907;DHT22;6521;50.498;8.474;2023-02-13T02:11:02;5.71;92.77
12907;DHT22;6521;50.498;8.474;2023-02-13T02:13:35;5.70;92.77
12907;DHT22;6521;50.498;8.474;2023-02-13T02:16:10;5.66;92.72
12907;DHT22;6521;50.498;8.474;2023-02-13T02:18:41;5.66;92.56
12907;DHT22;6521;50.498;8.474;2023-02-13T02:21:29;5.64;92.55
12907;DHT22;6521;50.498;8.474;2023-02-13T02:24:33;5.64;92.48
12907;DHT22;6521;50.498;8.474;2023-02-13T02:30:15;5.64;92.34
12907;DHT22;6521;50.498;8.474;2023-02-13T02:33:04;5.64;92.15
12907;DHT22;6521;50.498;8.474;2023-02-13T02:36:32;5.63;92.21
12907;DHT22;6521;50.498;8.474;2023-02-13T02:42:04;5.62;92.23
12907;DHT22;6521;50.498;8.474;2023-02-13T02:44:48;5.63;92.22
12907;DHT22;6521;50.498;8.474;2023-02-13T02:50:35;5.64;92.13
12907;DHT22;6521;50.498;8.474;2023-02-13T02:56:16;5.66;92.10
12907;DHT22;6521;50.498;8.474;2023-02-13T02:59:01;5.67;92.10
12907;DHT22;6521;50.498;8.474;2023-02-13T03:01:53;5.69;92.10
12907;DHT22;6521;50.498;8.474;2023-02-13T03:04:46;5.67;92.02
12907;DHT22;6521;50.498;8.474;2023-02-13T03:07:36;5.69;91.94
12907;DHT22;6521;50.498;8.474;2023-02-13T03:10:10;5.63;91.94
12907;DHT22;6521;50.498;8.474;2023-02-13T03:13:08;5.60;91.82
12907;DHT22;6521;50.498;8.474;2023-02-13T03:15:55;5.63;91.84
12907;DHT22;6521;50.498;8.474;2023-02-13T03:18:50;5.63;91.82
12907;DHT22;6521;50.498;8.474;2023-02-13T03:21:58;5.63;91.77
12907;DHT22;6521;50.498;8.474;2023-02-13T03:28:24;5.64;91.72
12907;DHT22;6521;50.498;8.474;2023-02-13T03:31:34;5.62;91.59
12907;DHT22;6521;50.498;8.474;2023-02-13T03:34:11;5.67;91.53
12907;DHT22;6521;50.498;8.474;2023-02-13T03:36:51;5.62;91.56
12907;DHT22;6521;50.498;8.474;2023-02-13T03:40:06;5.64;91.51
12907;DHT22;6521;50.498;8.474;2023-02-13T03:42:53;5.64;91.50
12907;DHT22;6521;50.498;8.474;2023-02-13T03:45:29;5.64;91.49
12907;DHT22;6521;50.498;8.474;2023-02-13T03:48:23;5.63;91.41
12907;DHT22;6521;50.498;8.474;2023-02-13T03:51:43;5.53;91.14
12907;DHT22;6521;50.498;8.474;2023-02-13T03:54:24;5.52;91.17
12907;DHT22;6521;50.498;8.474;2023-02-13T03:57:17;5.39;91.01
12907;DHT22;6521;50.498;8.474;2023-02-13T04:00:11;5.32;91.11
12907;DHT22;6521;50.498;8.474;2023-02-13T04:02:53;5.24;91.07
12907;DHT22;6521;50.498;8.474;2023-02-13T04:05:28;5.15;91.09
12907;DHT22;6521;50.498;8.474;2023-02-13T04:08:00;5.09;91.09
12907;DHT22;6521;50.498;8.474;2023-02-13T04:10:33;5.02;91.19
12907;DHT22;6521;50.498;8.474;2023-02-13T04:13:19;4.98;91.02
12907;DHT22;6521;50.498;8.474;2023-02-13T04:15:56;4.91;91.13
12907;DHT22;6521;50.498;8.474;2023-02-13T04:18:31;4.84;91.09
12907;DHT22;6521;50.498;8.474;2023-02-13T04:21:03;4.81;91.07
12907;DHT22;6521;50.498;8.474;2023-02-13T04:23:35;4.74;90.91
12907;DHT22;6521;50.498;8.474;2023-02-13T04:26:08;4.64;90.90
12907;DHT22;6521;50.498;8.474;2023-02-13T04:28:42;4.58;90.90
12907;DHT22;6521;50.498;8.474;2023-02-13T04:31:13;4.52;91.22
12907;DHT22;6521;50.498;8.474;2023-02-13T04:33:44;4.46;91.26
12907;DHT22;6521;50.498;8.474;2023-02-13T04:36:14;4.43;91.29
12907;DHT22;6521;50.498;8.474;2023-02-13T04:38:45;4.37;91.24
12907;DHT22;6521;50.498;8.474;2023-02-13T04:41:16;4.32;91.23
12907;DHT22;6521;50.498;8.474;2023-02-13T04:43:47;4.29;91.26
12907;DHT22;6521;50.498;8.474;2023-02-13T04:46:18;4.26;91.34
12907;DHT22;6521;50.498;8.474;2023-02-13T04:48:49;4.20;91.33
12907;DHT22;6521;50.498;8.474;2023-02-13T04:51:19;4.18;91.09
12907;DHT22;6521;50.498;8.474;2023-02-13T04:53:50;4.08;90.93
12907;DHT22;6521;50.498;8.474;2023-02-13T04:56:21;4.01;91.20
12907;DHT22;6521;50.498;8.474;2023-02-13T04:58:53;3.91;91.14
12907;DHT22;6521;50.498;8.474;2023-02-13T05:01:24;3.87;91.07
12907;DHT22;6521;50.498;8.474;2023-02-13T05:03:55;3.79;91.20
12907;DHT22;6521;50.498;8.474;2023-02-13T05:06:25;3.75;91.31
12907;DHT22;6521;50.498;8.474;2023-02-13T05:08:56;3.68;91.34
12907;DHT22;6521;50.498;8.474;2023-02-13T05:11:27;3.61;91.17
12907;DHT22;6521;50.498;8.474;2023-02-13T05:13:57;3.54;91.26
12907;DHT22;6521;50.498;8.474;2023-02-13T05:16:28;3.48;91.34
12907;DHT22;6521;50.498;8.474;2023-02-13T05:18:59;3.47;91.46
12907;DHT22;6521;50.498;8.474;2023-02-13T05:21:30;3.46;91.63
12907;DHT22;6521;50.498;8.474;2023-02-13T05:24:19;3.40;91.71
12907;DHT22;6521;50.498;8.474;2023-02-13T05:26:50;3.37;91.78
12907;DHT22;6521;50.498;8.474;2023-02-13T05:29:21;3.37;91.90
12907;DHT22;6521;50.498;8.474;2023-02-13T05:31:56;3.34;91.97
12907;DHT22;6521;50.498;8.474;2023-02-13T05:34:29;3.36;92.06
12907;DHT22;6521;50.498;8.474;2023-02-13T05:36:59;3.34;92.15
12907;DHT22;6521;50.498;8.474;2023-02-13T05:39:30;3.36;92.17
12907;DHT22;6521;50.498;8.474;2023-02-13T05:42:01;3.33;92.19
12907;DHT22;6521;50.498;8.474;2023-02-13T05:44:34;3.31;92.18
12907;DHT22;6521;50.498;8.474;2023-02-13T05:47:04;3.27;92.11
12907;DHT22;6521;50.498;8.474;2023-02-13T05:49:35;3.26;92.07
12907;DHT22;6521;50.498;8.474;2023-02-13T05:52:06;3.20;92.12
12907;DHT22;6521;50.498;8.474;2023-02-13T05:54:37;3.19;92.10
12907;DHT22;6521;50.498;8.474;2023-02-13T05:57:09;3.15;92.10
12907;DHT22;6521;50.498;8.474;2023-02-13T05:59:39;3.16;92.17
12907;DHT22;6521;50.498;8.474;2023-02-13T06:02:10;3.08;92.09
12907;DHT22;6521;50.498;8.474;2023-02-13T06:04:41;3.00;91.99
12907;DHT22;6521;50.498;8.474;2023-02-13T06:07:11;2.93;92.04
12907;DHT22;6521;50.498;8.474;2023-02-13T06:09:42;2.91;92.16
12907;DHT22;6521;50.498;8.474;2023-02-13T06:12:13;2.88;92.25
12907;DHT22;6521;50.498;8.474;2023-02-13T06:14:44;2.85;92.19
12907;DHT22;6521;50.498;8.474;2023-02-13T06:17:14;2.81;92.34
12907;DHT22;6521;50.498;8.474;2023-02-13T06:19:45;2.77;92.25
12907;DHT22;6521;50.498;8.474;2023-02-13T06:22:16;2.72;92.44
12907;DHT22;6521;50.498;8.474;2023-02-13T06:24:47;2.71;92.42
12907;DHT22;6521;50.498;8.474;2023-02-13T06:27:18;2.69;92.53
12907;DHT22;6521;50.498;8.474;2023-02-13T06:29:48;2.66;92.57
12907;DHT22;6521;50.498;8.474;2023-02-13T06:32:19;2.62;92.54
12907;DHT22;6521;50.498;8.474;2023-02-13T06:34:50;2.59;92.52
12907;DHT22;6521;50.498;8.474;2023-02-13T06:37:21;2.55;92.54
12907;DHT22;6521;50.498;8.474;2023-02-13T06:39:52;2.54;92.74
12907;DHT22;6521;50.498;8.474;2023-02-13T06:42:22;2.57;92.66
12907;DHT22;6521;50.498;8.474;2023-02-13T06:44:53;2.51;92.68
12907;DHT22;6521;50.498;8.474;2023-02-13T06:47:24;2.50;92.54
12907;DHT22;6521;50.498;8.474;2023-02-13T06:49:55;2.47;92.61
12907;DHT22;6521;50.498;8.474;2023-02-13T06:52:26;2.44;92.66
12907;DHT22;6521;50.498;8.474;2023-02-13T06:54:57;2.47;92.72
12907;DHT22;6521;50.498;8.474;2023-02-13T06:57:27;2.47;92.79
12907;DHT22;6521;50.498;8.474;2023-02-13T07:00:02;2.45;92.74
12907;DHT22;6521;50.498;8.474;2023-02-13T07:02:36;2.47;92.74
12907;DHT22;6521;50.498;8.474;2023-02-13T07:05:07;2.42;92.80
12907;DHT22;6521;50.498;8.474;2023-02-13T07:07:40;2.44;92.79
12907;DHT22;6521;50.498;8.474;2023-02-13T07:10:12;2.44;92.81
12907;DHT22;6521;50.498;8.474;2023-02-13T07:12:43;2.44;92.91
12907;DHT22;6521;50.498;8.474;2023-02-13T07:15:14;2.50;93.02
12907;DHT22;6521;50.498;8.474;2023-02-13T07:17:45;2.52;93.06
12907;DHT22;6521;50.498;8.474;2023-02-13T07:20:16;2.52;93.01
12907;DHT22;6521;50.498;8.474;2023-02-13T07:22:47;2.54;93.01
12907;DHT22;6521;50.498;8.474;2023-02-13T07:25:18;2.54;93.00
12907;DHT22;6521;50.498;8.474;2023-02-13T07:27:49;2.54;92.90
12907;DHT22;6521;50.498;8.474;2023-02-13T07:30:22;2.54;92.82
12907;DHT22;6521;50.498;8.474;2023-02-13T07:32:57;2.52;92.94
12907;DHT22;6521;50.498;8.474;2023-02-13T07:35:28;2.52;92.91
12907;DHT22;6521;50.498;8.474;2023-02-13T07:37:59;2.50;92.82
12907;DHT22;6521;50.498;8.474;2023-02-13T07:40:30;2.50;93.02
12907;DHT22;6521;50.498;8.474;2023-02-13T07:43:01;2.52;93.04
12907;DHT22;6521;50.498;8.474;2023-02-13T07:45:32;2.54;93.11
12907;DHT22;6521;50.498;8.474;2023-02-13T07:48:03;2.57;93.07
12907;DHT22;6521;50.498;8.474;2023-02-13T07:50:34;2.61;93.23
12907;DHT22;6521;50.498;8.474;2023-02-13T07:53:04;2.62;93.36
12907;DHT22;6521;50.498;8.474;2023-02-13T07:55:35;2.69;93.54
12907;DHT22;6521;50.498;8.474;2023-02-13T07:58:06;2.75;93.64
12907;DHT22;6521;50.498;8.474;2023-02-13T08:00:37;2.78;93.78
12907;DHT22;6521;50.498;8.474;2023-02-13T08:03:08;2.82;93.84
12907;DHT22;6521;50.498;8.474;2023-02-13T08:05:39;2.85;93.75
12907;DHT22;6521;50.498;8.474;2023-02-13T08:08:10;2.91;93.79
12907;DHT22;6521;50.498;8.474;2023-02-13T08:10:41;2.93;93.83
12907;DHT22;6521;50.498;8.474;2023-02-13T08:13:31;2.98;93.84
12907;DHT22;6521;50.498;8.474;2023-02-13T08:16:02;3.05;93.95
12907;DHT22;6521;50.498;8.474;2023-02-13T08:18:32;3.10;93.98
12907;DHT22;6521;50.498;8.474;2023-02-13T08:21:03;3.16;94.22
12907;DHT22;6521;50.498;8.474;2023-02-13T08:23:34;3.24;94.26
12907;DHT22;6521;50.498;8.474;2023-02-13T08:26:05;3.27;94.32
12907;DHT22;6521;50.498;8.474;2023-02-13T08:28:36;3.37;94.50
12907;DHT22;6521;50.498;8.474;2023-02-13T08:31:11;3.46;94.55
12907;DHT22;6521;50.498;8.474;2023-02-13T08:33:42;3.54;94.58
12907;DHT22;6521;50.498;8.474;2023-02-13T08:36:16;3.61;94.64
12907;DHT22;6521;50.498;8.474;2023-02-13T08:38:48;3.71;94.77
12907;DHT22;6521;50.498;8.474;2023-02-13T08:41:19;3.81;95.05
12907;DHT22;6521;50.498;8.474;2023-02-13T08:43:52;3.87;94.95
12907;DHT22;6521;50.498;8.474;2023-02-13T08:46:23;3.99;95.02
12907;DHT22;6521;50.498;8.474;2023-02-13T08:48:54;4.12;95.11
12907;DHT22;6521;50.498;8.474;2023-02-13T08:51:25;4.20;94.99
12907;DHT22;6521;50.498;8.474;2023-02-13T08:53:57;4.30;94.98
12907;DHT22;6521;50.498;8.474;2023-02-13T08:56:28;4.39;94.92
12907;DHT22;6521;50.498;8.474;2023-02-13T08:58:59;4.49;94.80
12907;DHT22;6521;50.498;8.474;2023-02-13T09:01:29;4.54;94.80
12907;DHT22;6521;50.498;8.474;2023-02-13T09:04:00;4.63;94.65
12907;DHT22;6521;50.498;8.474;2023-02-13T09:06:31;4.71;94.62
12907;DHT22;6521;50.498;8.474;2023-02-13T09:09:04;4.81;94.59
12907;DHT22;6521;50.498;8.474;2023-02-13T09:11:34;4.88;94.43
12907;DHT22;6521;50.498;8.474;2023-02-13T09:14:05;4.91;94.26
12907;DHT22;6521;50.498;8.474;2023-02-13T09:16:36;4.98;94.20
12907;DHT22;6521;50.498;8.474;2023-02-13T09:19:07;5.04;94.06
12907;DHT22;6521;50.498;8.474;2023-02-13T09:21:38;5.11;93.94
12907;DHT22;6521;50.498;8.474;2023-02-13T09:24:09;5.19;93.96
12907;DHT22;6521;50.498;8.474;2023-02-13T09:26:40;5.29;93.85
12907;DHT22;6521;50.498;8.474;2023-02-13T09:29:10;5.35;93.69
12907;DHT22;6521;50.498;8.474;2023-02-13T09:31:42;5.42;93.53
12907;DHT22;6521;50.498;8.474;2023-02-13T09:34:12;5.47;93.24
12907;DHT22;6521;50.498;8.474;2023-02-13T09:36:43;5.52;93.20
12907;DHT22;6521;50.498;8.474;2023-02-13T09:39:14;5.63;93.16
12907;DHT22;6521;50.498;8.474;2023-02-13T09:41:48;5.70;93.16
12907;DHT22;6521;50.498;8.474;2023-02-13T09:50:20;6.04;92.79
12907;DHT22;6521;50.498;8.474;2023-02-13T09:52:53;6.11;92.34
12907;DHT22;6521;50.498;8.474;2023-02-13T09:55:54;6.18;92.19
12907;DHT22;6521;50.498;8.474;2023-02-13T09:58:47;6.35;92.28
12907;DHT22;6521;50.498;8.474;2023-02-13T10:01:25;6.59;92.46
12907;DHT22;6521;50.498;8.474;2023-02-13T10:04:22;6.77;92.08
12907;DHT22;6521;50.498;8.474;2023-02-13T10:10:06;7.24;90.86
12907;DHT22;6521;50.498;8.474;2023-02-13T10:12:59;7.63;90.90
12907;DHT22;6521;50.498;8.474;2023-02-13T10:15:50;8.13;90.55
12907;DHT22;6521;50.498;8.474;2023-02-13T10:18:30;8.65;89.25
12907;DHT22;6521;50.498;8.474;2023-02-13T10:21:04;9.22;88.83
12907;DHT22;6521;50.498;8.474;2023-02-13T10:23:42;9.80;85.82
12907;DHT22;6521;50.498;8.474;2023-02-13T10:26:20;10.29;84.25
12907;DHT22;6521;50.498;8.474;2023-02-13T10:29:04;10.91;81.24
12907;DHT22;6521;50.498;8.474;2023-02-13T10:31:58;11.35;77.73
12907;DHT22;6521;50.498;8.474;2023-02-13T10:34:35;11.76;76.44
12907;DHT22;6521;50.498;8.474;2023-02-13T10:37:13;12.10;74.29
12907;DHT22;6521;50.498;8.474;2023-02-13T10:39:48;12.42;72.20
12907;DHT22;6521;50.498;8.474;2023-02-13T10:56:57;13.78;64.66
12907;DHT22;6521;50.498;8.474;2023-02-13T11:02:27;14.36;62.33
12907;DHT22;6521;50.498;8.474;2023-02-13T11:05:37;14.50;62.90
12907;DHT22;6521;50.498;8.474;2023-02-13T11:08:17;14.84;61.69
12907;DHT22;6521;50.498;8.474;2023-02-13T11:10:50;15.09;61.45
12907;DHT22;6521;50.498;8.474;2023-02-13T11:13:23;15.22;59.01
12907;DHT22;6521;50.498;8.474;2023-02-13T11:16:02;15.18;59.59
12907;DHT22;6521;50.498;8.474;2023-02-13T11:18:36;15.32;56.50
12907;DHT22;6521;50.498;8.474;2023-02-13T11:21:19;15.24;57.63
12907;DHT22;6521;50.498;8.474;2023-02-13T11:23:52;15.18;57.35
12907;DHT22;6521;50.498;8.474;2023-02-13T11:26:34;15.38;57.77
12907;DHT22;6521;50.498;8.474;2023-02-13T11:29:16;15.56;57.61
12907;DHT22;6521;50.498;8.474;2023-02-13T11:32:01;15.65;57.09
12907;DHT22;6521;50.498;8.474;2023-02-13T11:34:35;15.60;55.47
12907;DHT22;6521;50.498;8.474;2023-02-13T11:39:44;15.53;56.81
12907;DHT22;6521;50.498;8.474;2023-02-13T11:42:25;15.89;56.52
12907;DHT22;6521;50.498;8.474;2023-02-13T11:45:20;15.77;55.44
12907;DHT22;6521;50.498;8.474;2023-02-13T11:47:55;15.96;55.15
12907;DHT22;6521;50.498;8.474;2023-02-13T11:50:27;16.11;54.14
12907;DHT22;6521;50.498;8.474;2023-02-13T11:53:05;16.18;53.04
12907;DHT22;6521;50.498;8.474;2023-02-13T11:55:39;16.22;53.08
12907;DHT22;6521;50.498;8.474;2023-02-13T12:00:45;16.11;54.06
12907;DHT22;6521;50.498;8.474;2023-02-13T12:03:29;16.18;52.55
12907;DHT22;6521;50.498;8.474;2023-02-13T12:06:10;16.29;53.46
12907;DHT22;6521;50.498;8.474;2023-02-13T12:08:46;16.28;53.56
12907;DHT22;6521;50.498;8.474;2023-02-13T12:11:35;16.32;52.49
12907;DHT22;6521;50.498;8.474;2023-02-13T12:14:11;16.34;52.58
12907;DHT22;6521;50.498;8.474;2023-02-13T12:16:47;16.38;51.01
12907;DHT22;6521;50.498;8.474;2023-02-13T12:19:44;16.35;53.28
12907;DHT22;6521;50.498;8.474;2023-02-13T12:22:37;16.56;52.70
12907;DHT22;6521;50.498;8.474;2023-02-13T12:25:41;16.55;52.01
12907;DHT22;6521;50.498;8.474;2023-02-13T12:28:18;16.82;52.31
12907;DHT22;6521;50.498;8.474;2023-02-13T12:31:02;16.68;49.90
12907;DHT22;6521;50.498;8.474;2023-02-13T12:39:32;16.68;51.02
12907;DHT22;6521;50.498;8.474;2023-02-13T12:42:26;16.73;52.16
12907;DHT22;6521;50.498;8.474;2023-02-13T12:45:09;16.64;52.26
12907;DHT22;6521;50.498;8.474;2023-02-13T12:48:16;16.79;51.74
12907;DHT22;6521;50.498;8.474;2023-02-13T12:57:05;16.95;50.41
12907;DHT22;6521;50.498;8.474;2023-02-13T13:17:13;16.56;51.49
12907;DHT22;6521;50.498;8.474;2023-02-13T13:22:50;16.55;51.47
12907;DHT22;6521;50.498;8.474;2023-02-13T13:26:27;16.22;51.61
12907;DHT22;6521;50.498;8.474;2023-02-13T13:28:44;16.04;51.06
12907;DHT22;6521;50.498;8.474;2023-02-13T13:31:17;16.00;51.35
12907;DHT22;6521;50.498;8.474;2023-02-13T13:33:48;15.86;51.92
12907;DHT22;6521;50.498;8.474;2023-02-13T13:39:05;15.71;52.15
12907;DHT22;6521;50.498;8.474;2023-02-13T13:42:13;15.59;52.98
12907;DHT22;6521;50.498;8.474;2023-02-13T13:45:05;15.73;53.35
12907;DHT22;6521;50.498;8.474;2023-02-13T13:50:39;15.83;52.12
12907;DHT22;6521;50.498;8.474;2023-02-13T13:53:17;15.90;52.75
12907;DHT22;6521;50.498;8.474;2023-02-13T13:58:32;16.06;52.19
12907;DHT22;6521;50.498;8.474;2023-02-13T14:01:26;15.94;52.77
12907;DHT22;6521;50.498;8.474;2023-02-13T14:07:13;15.86;53.05
12907;DHT22;6521;50.498;8.474;2023-02-13T14:09:45;15.73;53.05
12907;DHT22;6521;50.498;8.474;2023-02-13T14:14:59;15.73;53.25
12907;DHT22;6521;50.498;8.474;2023-02-13T14:20:27;15.59;53.84
12907;DHT22;6521;50.498;8.474;2023-02-13T14:26:19;15.45;54.49
12907;DHT22;6521;50.498;8.474;2023-02-13T14:31:33;15.34;53.66
12907;DHT22;6521;50.498;8.474;2023-02-13T14:34:18;15.31;53.63
12907;DHT22;6521;50.498;8.474;2023-02-13T14:40:30;15.32;53.17
12907;DHT22;6521;50.498;8.474;2023-02-13T14:46:03;15.42;52.74
12907;DHT22;6521;50.498;8.474;2023-02-13T14:48:42;15.52;52.97
12907;DHT22;6521;50.498;8.474;2023-02-13T14:51:26;15.49;52.71
12907;DHT22;6521;50.498;8.474;2023-02-13T14:54:26;15.39;52.27
12907;DHT22;6521;50.498;8.474;2023-02-13T14:59:50;14.88;53.19
12907;DHT22;6521;50.498;8.474;2023-02-13T15:05:14;14.78;53.39
12907;DHT22;6521;50.498;8.474;2023-02-13T15:08:10;14.59;53.07
12907;DHT22;6521;50.498;8.474;2023-02-13T15:10:50;14.50;54.91
12907;DHT22;6521;50.498;8.474;2023-02-13T15:13:23;14.49;55.26
12907;DHT22;6521;50.498;8.474;2023-02-13T15:16:02;14.39;55.49
12907;DHT22;6521;50.498;8.474;2023-02-13T15:18:40;14.30;55.74
12907;DHT22;6521;50.498;8.474;2023-02-13T15:21:18;14.18;55.87
12907;DHT22;6521;50.498;8.474;2023-02-13T15:23:54;13.98;56.22
12907;DHT22;6521;50.498;8.474;2023-02-13T15:26:26;13.94;56.92
12907;DHT22;6521;50.498;8.474;2023-02-13T15:29:00;13.78;56.67
12907;DHT22;6521;50.498;8.474;2023-02-13T15:31:32;13.57;56.66
12907;DHT22;6521;50.498;8.474;2023-02-13T15:34:03;13.46;57.60
12907;DHT22;6521;50.498;8.474;2023-02-13T15:36:48;13.37;58.00
12907;DHT22;6521;50.498;8.474;2023-02-13T15:39:24;13.16;57.79
12907;DHT22;6521;50.498;8.474;2023-02-13T15:41:58;12.96;58.39
12907;DHT22;6521;50.498;8.474;2023-02-13T15:44:34;12.82;59.09
12907;DHT22;6521;50.498;8.474;2023-02-13T15:47:07;12.76;59.35
12907;DHT22;6521;50.498;8.474;2023-02-13T15:49:42;12.56;59.73
12907;DHT22;6521;50.498;8.474;2023-02-13T15:52:32;12.42;60.38
12907;DHT22;6521;50.498;8.474;2023-02-13T15:55:05;12.28;60.72
12907;DHT22;6521;50.498;8.474;2023-02-13T15:57:39;12.08;61.01
12907;DHT22;6521;50.498;8.474;2023-02-13T16:00:23;11.87;61.78
12907;DHT22;6521;50.498;8.474;2023-02-13T16:02:59;11.66;62.29
12907;DHT22;6521;50.498;8.474;2023-02-13T16:05:38;11.46;62.78
12907;DHT22;6521;50.498;8.474;2023-02-13T16:08:34;11.24;63.44
12907;DHT22;6521;50.498;8.474;2023-02-13T16:16:42;10.66;65.06
12907;DHT22;6521;50.498;8.474;2023-02-13T16:19:24;10.43;65.44
12907;DHT22;6521;50.498;8.474;2023-02-13T16:21:57;10.25;65.77
12907;DHT22;6521;50.498;8.474;2023-02-13T16:24:29;10.10;66.19
12907;DHT22;6521;50.498;8.474;2023-02-13T16:27:01;9.99;66.62
12907;DHT22;6521;50.498;8.474;2023-02-13T16:29:32;9.80;67.13
12907;DHT22;6521;50.498;8.474;2023-02-13T16:32:11;9.68;67.64
12907;DHT22;6521;50.498;8.474;2023-02-13T16:34:44;9.48;67.81
12907;DHT22;6521;50.498;8.474;2023-02-13T16:37:26;9.36;68.40
12907;DHT22;6521;50.498;8.474;2023-02-13T16:43:33;9.03;69.22
12907;DHT22;6521;50.498;8.474;2023-02-13T16:51:31;8.69;69.95
12907;DHT22;6521;50.498;8.474;2023-02-13T16:56:49;8.51;70.38
12907;DHT22;6521;50.498;8.474;2023-02-13T16:59:30;8.44;70.68
12907;DHT22;6521;50.498;8.474;2023-02-13T17:07:41;8.24;70.51
12907;DHT22;6521;50.498;8.474;2023-02-13T17:10:37;8.14;70.77
12907;DHT22;6521;50.498;8.474;2023-02-13T17:15:45;8.02;70.57
12907;DHT22;6521;50.498;8.474;2023-02-13T17:18:16;7.97;70.97
12907;DHT22;6521;50.498;8.474;2023-02-13T17:20:48;7.93;70.62
12907;DHT22;6521;50.498;8.474;2023-02-13T17:23:21;7.81;70.81
12907;DHT22;6521;50.498;8.474;2023-02-13T17:25:53;7.75;71.03
12907;DHT22;6521;50.498;8.474;2023-02-13T17:28:25;7.69;71.05
12907;DHT22;6521;50.498;8.474;2023-02-13T17:30:58;7.65;71.41
12907;DHT22;6521;50.498;8.474;2023-02-13T17:33:30;7.61;71.36
12907;DHT22;6521;50.498;8.474;2023-02-13T17:36:04;7.54;71.56
12907;DHT22;6521;50.498;8.474;2023-02-13T17:38:35;7.47;71.63
12907;DHT22;6521;50.498;8.474;2023-02-13T17:41:15;7.34;71.90
12907;DHT22;6521;50.498;8.474;2023-02-13T17:43:46;7.30;72.04
12907;DHT22;6521;50.498;8.474;2023-02-13T17:46:18;7.27;72.43
12907;DHT22;6521;50.498;8.474;2023-02-13T17:48:49;7.27;72.52
12907;DHT22;6521;50.498;8.474;2023-02-13T17:51:20;7.23;72.59
12907;DHT22;6521;50.498;8.474;2023-02-13T17:53:53;7.14;72.99
12907;DHT22;6521;50.498;8.474;2023-02-13T17:56:25;7.08;72.85
12907;DHT22;6521;50.498;8.474;2023-02-13T17:58:56;6.99;72.74
12907;DHT22;6521;50.498;8.474;2023-02-13T18:01:27;6.90;73.08
12907;DHT22;6521;50.498;8.474;2023-02-13T18:03:57;6.82;73.64
12907;DHT22;6521;50.498;8.474;2023-02-13T18:06:28;6.77;73.84
12907;DHT22;6521;50.498;8.474;2023-02-13T18:09:00;6.72;73.84
12907;DHT22;6521;50.498;8.474;2023-02-13T18:11:30;6.65;74.06
12907;DHT22;6521;50.498;8.474;2023-02-13T18:14:01;6.59;74.51
12907;DHT22;6521;50.498;8.474;2023-02-13T18:16:32;6.57;74.60
12907;DHT22;6521;50.498;8.474;2023-02-13T18:19:03;6.56;74.61
12907;DHT22;6521;50.498;8.474;2023-02-13T18:21:35;6.55;74.77
12907;DHT22;6521;50.498;8.474;2023-02-13T18:24:07;6.52;74.94
12907;DHT22;6521;50.498;8.474;2023-02-13T18:26:38;6.49;75.16
12907;DHT22;6521;50.498;8.474;2023-02-13T18:29:09;6.46;75.41
12907;DHT22;6521;50.498;8.474;2023-02-13T18:31:39;6.45;75.49
12907;DHT22;6521;50.498;8.474;2023-02-13T18:34:10;6.45;76.10
12907;DHT22;6521;50.498;8.474;2023-02-13T18:36:41;6.44;76.58
12907;DHT22;6521;50.498;8.474;2023-02-13T18:39:12;6.45;76.54
12907;DHT22;6521;50.498;8.474;2023-02-13T18:41:43;6.46;76.20
12907;DHT22;6521;50.498;8.474;2023-02-13T18:44:14;6.45;75.91
12907;DHT22;6521;50.498;8.474;2023-02-13T18:46:45;6.46;76.01
12907;DHT22;6521;50.498;8.474;2023-02-13T18:49:16;6.39;76.47
12907;DHT22;6521;50.498;8.474;2023-02-13T18:51:47;6.39;76.55
12907;DHT22;6521;50.498;8.474;2023-02-13T18:54:18;6.41;76.76
12907;DHT22;6521;50.498;8.474;2023-02-13T18:56:49;6.44;76.66
12907;DHT22;6521;50.498;8.474;2023-02-13T18:59:20;6.41;76.95
12907;DHT22;6521;50.498;8.474;2023-02-13T19:01:52;6.44;76.80
12907;DHT22;6521;50.498;8.474;2023-02-13T19:04:24;6.41;76.70
12907;DHT22;6521;50.498;8.474;2023-02-13T19:06:54;6.41;76.82
12907;DHT22;6521;50.498;8.474;2023-02-13T19:09:25;6.36;76.89
12907;DHT22;6521;50.498;8.474;2023-02-13T19:11:56;6.35;76.87
12907;DHT22;6521;50.498;8.474;2023-02-13T19:14:26;6.31;76.95
12907;DHT22;6521;50.498;8.474;2023-02-13T19:16:57;6.32;76.87